Crossville Memorial Whitson Field Crossville US
ICAO: KCSV
IATA: CSV
Category: Medium
Scheduled Services: No

Elevation: 1881 ft
TransAlt. 18000 ft.

Airport Communications:
ASOS:120.625
ATLANTA CNTR:133.6
NASHVILLE RDO:122.2
CTAF/UNICOM:122.7

KCSV Zoom In..

Runways:

(A) RW 08 length 5418 ft width 100 ft
---- / hdg 75

(B) RW 26 length 5418 ft width 100 ft
ILS 109.10 / hdg 255

Location; KCSV
Day. 24 / Time. 12.53 Zulu
* Altimeter: 30.19
* Temperature: 21° c. 69.8°f.
* Wind from: 000° Speed 00 kn.
Dewpoint: 17° c.
Visibility: 10 Statute Miles.
Clouds: Clear (automated report).

KCSV 241253Z AUTO 00000KT 10SM CLR 21/17 A3019 RMK AO2 SLP204 T02110172


Wind - Calm.

 
 
jpsmedia.com for Web Design SOUNDCLOUD worldairports.se 2018   terms of use